Time;durP1;ratioP1;P1;durP2;ratioP2;P2;SDS_P1;SDS_P2;PMS_P1;PMS_P2;Temp;Humidity;BMP_temperature;BMP_pressure;BME280_temperature;BME280_humidity;BME280_pressure;Samples;Min_cycle;Max_cycle;Signal;HPM_P1;HPM_P2
2021/04/16 00:00:34;;;;;;;8.10;5.80;;;7.50;55.70;;;;;;5118105;28;20490;-78
2021/04/16 00:03:00;;;;;;;5.60;5.10;;;7.50;55.90;;;;;;5118161;28;20454;-78
2021/04/16 00:05:27;;;;;;;6.70;5.57;;;7.40;55.70;;;;;;5118665;28;20449;-78
2021/04/16 00:07:53;;;;;;;6.03;5.43;;;7.40;55.80;;;;;;5118100;28;20470;-78
2021/04/16 00:10:24;;;;;;;6.80;6.07;;;7.30;55.80;;;;;;5118290;28;20470;-78
2021/04/16 00:12:51;;;;;;;8.27;5.70;;;7.20;56.20;;;;;;5118578;27;20427;-78
2021/04/16 00:15:22;;;;;;;7.10;6.30;;;7.10;56.40;;;;;;5117718;28;20892;-78
2021/04/16 00:17:48;;;;;;;7.00;5.53;;;7.10;56.60;;;;;;5118352;28;20419;-78
2021/04/16 00:20:18;;;;;;;6.13;5.50;;;7.00;56.80;;;;;;5118383;28;20466;-78
2021/04/16 00:22:44;;;;;;;7.00;5.90;;;7.00;57.00;;;;;;5117863;28;20507;-78
2021/04/16 00:25:14;;;;;;;8.30;5.90;;;6.90;57.30;;;;;;5117563;28;20476;-77
2021/04/16 00:27:41;;;;;;;8.37;5.40;;;6.90;57.30;;;;;;5117706;28;20490;-78
2021/04/16 00:30:09;;;;;;;8.73;5.60;;;6.80;57.40;;;;;;5117342;28;20466;-78
2021/04/16 00:32:35;;;;;;;6.30;5.40;;;6.70;57.60;;;;;;5117294;28;20442;-78
2021/04/16 00:35:02;;;;;;;6.10;5.53;;;6.70;57.80;;;;;;5117308;28;20958;-77
2021/04/16 00:37:28;;;;;;;5.87;5.30;;;6.60;57.90;;;;;;5117293;28;20445;-78
2021/04/16 00:39:54;;;;;;;6.63;6.03;;;6.50;58.00;;;;;;5117247;28;21002;-78
2021/04/16 00:42:21;;;;;;;6.47;5.87;;;6.50;58.10;;;;;;5117225;28;20936;-78
2021/04/16 00:44:48;;;;;;;7.23;6.10;;;6.50;58.30;;;;;;5117042;28;20450;-78
2021/04/16 00:47:17;;;;;;;6.90;6.20;;;6.50;58.30;;;;;;5117497;28;20443;-78
2021/04/16 00:49:45;;;;;;;6.77;6.07;;;6.50;58.50;;;;;;5116998;28;20831;-78
2021/04/16 00:52:14;;;;;;;5.93;5.33;;;6.50;58.70;;;;;;5116883;28;20446;-78
2021/04/16 00:54:42;;;;;;;6.50;5.90;;;6.40;58.70;;;;;;5117558;28;20849;-78
2021/04/16 00:57:12;;;;;;;7.40;5.53;;;6.40;58.70;;;;;;5117666;28;20447;-78
2021/04/16 00:59:43;;;;;;;6.57;5.87;;;6.40;58.90;;;;;;5117744;28;20462;-78
2021/04/16 01:02:10;;;;;;;7.80;6.33;;;6.40;58.90;;;;;;5117460;28;20896;-78
2021/04/16 01:04:36;;;;;;;6.27;5.67;;;6.40;59.00;;;;;;5117091;28;20443;-78
2021/04/16 01:07:05;;;;;;;7.00;6.30;;;6.40;59.10;;;;;;5117184;28;20469;-77
2021/04/16 01:09:31;;;;;;;7.40;6.70;;;6.40;59.00;;;;;;5116925;28;20455;-78
2021/04/16 01:11:57;;;;;;;7.03;5.73;;;6.40;59.20;;;;;;5117253;28;20439;-77
2021/04/16 01:14:25;;;;;;;7.63;6.83;;;6.30;59.20;;;;;;5117078;28;20447;-78
2021/04/16 01:16:51;;;;;;;7.10;6.43;;;6.20;59.40;;;;;;5116926;28;20431;-78
2021/04/16 01:19:26;;;;;;;7.70;6.77;;;6.20;59.40;;;;;;5116494;28;20462;-78
2021/04/16 01:21:58;;;;;;;7.33;6.37;;;6.20;59.50;;;;;;5117599;28;20434;-77
2021/04/16 01:24:27;;;;;;;7.13;5.80;;;6.20;59.40;;;;;;5117582;28;20442;-77
2021/04/16 01:26:54;;;;;;;7.47;6.77;;;6.20;59.30;;;;;;5117757;28;20434;-77
2021/04/16 01:29:20;;;;;;;7.33;6.67;;;6.20;59.30;;;;;;5117499;28;20996;-77
2021/04/16 01:31:51;;;;;;;8.37;6.27;;;6.10;59.50;;;;;;5117513;28;20442;-78
2021/04/16 01:34:19;;;;;;;8.70;6.73;;;6.20;59.70;;;;;;5117776;28;20427;-78
2021/04/16 01:36:46;;;;;;;7.97;7.20;;;6.10;59.80;;;;;;5118151;28;20450;-78
2021/04/16 01:39:13;;;;;;;7.97;6.67;;;6.10;60.00;;;;;;5117564;28;20516;-78
2021/04/16 01:41:40;;;;;;;8.20;6.10;;;6.10;60.00;;;;;;5117035;28;20446;-78
2021/04/16 01:44:10;;;;;;;7.17;5.70;;;6.10;60.00;;;;;;5116824;28;20478;-78
2021/04/16 01:46:55;;;;;;;7.40;6.60;;;6.10;60.10;;;;;;5116614;28;20447;-78
2021/04/16 01:49:23;;;;;;;7.30;6.60;;;6.10;60.30;;;;;;5117326;28;20581;-78
2021/04/16 01:51:49;;;;;;;9.50;6.73;;;6.10;60.20;;;;;;5117220;28;20439;-78
2021/04/16 01:54:19;;;;;;;7.57;6.60;;;6.00;60.10;;;;;;5116898;28;20476;-78
2021/04/16 01:56:48;;;;;;;6.40;5.80;;;6.00;60.40;;;;;;5116295;28;20488;-78
2021/04/16 01:59:15;;;;;;;7.33;6.30;;;6.00;60.50;;;;;;5115873;28;20459;-78
2021/04/16 02:01:43;;;;;;;8.40;6.80;;;5.90;60.70;;;;;;5116105;28;20500;-77
2021/04/16 02:04:10;;;;;;;7.07;6.47;;;5.90;60.90;;;;;;5119862;28;20458;-78
2021/04/16 02:06:37;;;;;;;8.53;7.63;;;5.90;61.20;;;;;;5120456;28;20443;-78
2021/04/16 02:09:06;;;;;;;7.00;6.40;;;5.90;61.10;;;;;;5120125;28;20504;-78
2021/04/16 02:11:32;;;;;;;9.70;6.80;;;5.90;61.10;;;;;;5120490;28;20449;-77
2021/04/16 02:14:00;;;;;;;9.40;6.43;;;5.80;61.20;;;;;;5120291;28;20451;-78
2021/04/16 02:16:26;;;;;;;8.63;7.53;;;5.80;61.30;;;;;;5120241;28;20469;-77
2021/04/16 02:18:52;;;;;;;6.90;6.20;;;5.80;61.50;;;;;;5120373;28;20463;-78
2021/04/16 02:21:19;;;;;;;10.93;6.57;;;5.80;61.50;;;;;;5120629;28;20450;-78
2021/04/16 02:23:45;;;;;;;6.70;6.00;;;5.80;61.50;;;;;;5119761;28;20446;-78
2021/04/16 02:26:11;;;;;;;7.80;6.93;;;5.70;61.60;;;;;;5119541;28;20454;-78
2021/04/16 02:28:37;;;;;;;6.93;5.97;;;5.70;61.80;;;;;;5119945;28;20984;-78
2021/04/16 02:31:04;;;;;;;6.50;5.50;;;5.70;62.10;;;;;;5120162;28;20495;-78
2021/04/16 02:33:31;;;;;;;5.90;5.40;;;5.70;62.20;;;;;;5119629;28;20446;-78
2021/04/16 02:35:57;;;;;;;6.47;5.77;;;5.70;62.20;;;;;;5120465;27;20435;-78
2021/04/16 02:38:23;;;;;;;7.37;6.40;;;5.70;62.30;;;;;;5120036;28;20435;-77
2021/04/16 02:40:49;;;;;;;6.87;6.17;;;5.70;62.70;;;;;;5120021;28;20443;-78
2021/04/16 02:43:16;;;;;;;7.07;6.20;;;5.70;62.70;;;;;;5119865;28;20450;-78
2021/04/16 02:45:42;;;;;;;10.00;6.33;;;5.70;63.00;;;;;;5120082;28;20446;-78
2021/04/16 02:48:09;;;;;;;7.10;6.43;;;5.70;63.20;;;;;;5119687;28;20536;-78
2021/04/16 02:50:35;;;;;;;6.73;6.03;;;5.70;63.70;;;;;;5119511;28;20463;-78
2021/04/16 02:53:01;;;;;;;6.80;6.13;;;5.70;63.70;;;;;;5119726;28;20462;-77
2021/04/16 02:55:28;;;;;;;7.97;6.17;;;5.70;63.70;;;;;;5119258;28;20451;-78
2021/04/16 02:57:54;;;;;;;8.07;6.27;;;5.70;63.80;;;;;;5118774;28;20491;-77
2021/04/16 03:00:25;;;;;;;8.63;7.13;;;5.70;63.50;;;;;;5119586;28;20467;-78
2021/04/16 03:02:51;;;;;;;7.33;6.00;;;5.70;63.20;;;;;;5119559;28;20427;-78
2021/04/16 03:05:18;;;;;;;8.50;6.07;;;5.70;63.40;;;;;;5119358;28;20447;-78
2021/04/16 03:07:45;;;;;;;7.90;6.90;;;5.70;63.40;;;;;;5119345;28;20478;-78
2021/04/16 03:10:13;;;;;;;7.03;6.33;;;5.70;63.60;;;;;;5119128;28;20825;-78
2021/04/16 03:12:40;;;;;;;7.83;6.47;;;5.70;63.80;;;;;;5119414;28;20431;-78
2021/04/16 03:15:08;;;;;;;6.40;5.80;;;5.70;64.20;;;;;;5118927;28;20447;-78
2021/04/16 03:17:34;;;;;;;6.50;5.90;;;5.70;64.50;;;;;;5119701;28;20550;-78
2021/04/16 03:20:00;;;;;;;7.77;6.87;;;5.70;64.50;;;;;;5119456;28;20512;-77
2021/04/16 03:22:27;;;;;;;7.20;6.30;;;5.60;64.90;;;;;;5119177;28;20447;-78
2021/04/16 03:24:54;;;;;;;7.93;7.07;;;5.60;65.30;;;;;;5119399;28;20465;-78
2021/04/16 03:27:20;;;;;;;7.13;6.53;;;5.70;65.80;;;;;;5119885;28;20825;-78
2021/04/16 03:29:46;;;;;;;10.33;6.13;;;5.70;65.80;;;;;;5119405;28;20528;-78
2021/04/16 03:32:12;;;;;;;6.63;6.03;;;5.70;65.50;;;;;;5119644;28;20850;-78
2021/04/16 03:34:38;;;;;;;6.50;5.90;;;5.70;65.60;;;;;;5118928;28;20462;-78
2021/04/16 03:37:05;;;;;;;7.63;6.83;;;5.70;65.80;;;;;;5119145;28;20450;-78
2021/04/16 03:39:32;;;;;;;6.43;5.83;;;5.60;66.10;;;;;;5118837;28;20467;-78
2021/04/16 03:41:58;;;;;;;6.77;5.83;;;5.60;66.70;;;;;;5118226;28;20496;-78
2021/04/16 03:44:24;;;;;;;5.90;5.40;;;5.70;66.90;;;;;;5118936;28;20446;-78
2021/04/16 03:46:50;;;;;;;7.13;6.43;;;5.60;67.00;;;;;;5118063;28;20450;-77
2021/04/16 03:49:17;;;;;;;7.17;6.57;;;5.70;67.10;;;;;;5117990;28;20899;-78
2021/04/16 03:51:51;;;;;;;6.70;6.10;;;5.70;67.20;;;;;;5117887;28;20447;-78
2021/04/16 03:54:18;;;;;;;6.10;5.53;;;5.70;67.40;;;;;;5117969;28;20446;-77
2021/04/16 03:56:45;;;;;;;7.37;6.67;;;5.70;67.30;;;;;;5117950;28;20447;-78
2021/04/16 03:59:12;;;;;;;7.20;6.47;;;5.70;68.00;;;;;;5117532;28;20454;-78
2021/04/16 04:01:38;;;;;;;7.40;6.70;;;5.70;68.00;;;;;;5117506;28;20443;-77
2021/04/16 04:04:05;;;;;;;7.07;6.47;;;5.70;68.40;;;;;;5117663;28;20439;-77
2021/04/16 04:06:31;;;;;;;7.63;6.50;;;5.70;68.50;;;;;;5116976;28;20446;-77
2021/04/16 04:08:58;;;;;;;8.40;6.07;;;5.80;68.70;;;;;;5116595;28;20478;-78
2021/04/16 04:11:24;;;;;;;7.00;5.77;;;5.80;68.60;;;;;;5117003;28;20447;-77
2021/04/16 04:13:51;;;;;;;5.50;5.00;;;5.70;68.50;;;;;;5116301;28;20811;-78
2021/04/16 04:16:17;;;;;;;7.40;6.20;;;5.70;69.10;;;;;;5116064;28;20446;-77
2021/04/16 04:18:44;;;;;;;6.03;5.43;;;5.70;69.70;;;;;;5115513;28;21002;-77
2021/04/16 04:21:10;;;;;;;6.57;5.97;;;5.70;70.00;;;;;;5115667;28;20463;-77
2021/04/16 04:23:36;;;;;;;7.50;6.80;;;5.70;70.20;;;;;;5115532;28;20461;-77
2021/04/16 04:26:03;;;;;;;7.07;6.17;;;5.70;70.40;;;;;;5114941;28;21009;-77
2021/04/16 04:28:29;;;;;;;10.70;7.83;;;5.70;70.60;;;;;;5115431;28;20471;-78
2021/04/16 04:30:56;;;;;;;7.60;6.80;;;5.70;70.50;;;;;;5115459;28;20434;-77
2021/04/16 04:33:22;;;;;;;9.30;6.27;;;5.80;70.80;;;;;;5115579;28;20443;-77
2021/04/16 04:35:49;;;;;;;7.70;5.97;;;5.80;71.00;;;;;;5115873;28;20450;-78
2021/04/16 04:38:16;;;;;;;7.93;7.20;;;5.80;70.70;;;;;;5115538;28;20450;-77
2021/04/16 04:40:43;;;;;;;7.20;6.50;;;5.90;70.80;;;;;;5115785;28;20916;-78
2021/04/16 04:43:10;;;;;;;6.40;5.80;;;5.90;70.90;;;;;;5116001;28;20566;-78
2021/04/16 04:45:36;;;;;;;6.90;6.20;;;5.90;70.60;;;;;;5116010;28;20439;-77
2021/04/16 04:48:03;;;;;;;7.63;6.33;;;6.00;70.80;;;;;;5115849;28;20481;-77
2021/04/16 04:50:30;;;;;;;6.37;5.77;;;5.90;71.00;;;;;;5116063;28;20458;-77
2021/04/16 04:52:57;;;;;;;6.87;5.87;;;5.90;71.20;;;;;;5116340;28;20464;-76
2021/04/16 04:55:25;;;;;;;7.60;5.77;;;5.90;71.40;;;;;;5114502;28;20483;-76
2021/04/16 04:57:51;;;;;;;6.30;5.60;;;5.90;71.00;;;;;;5114203;28;20439;-76
2021/04/16 05:00:19;;;;;;;5.70;5.20;;;5.90;71.20;;;;;;5114355;28;20467;-76
2021/04/16 05:02:46;;;;;;;6.63;5.83;;;5.90;71.30;;;;;;5114512;28;20427;-76
2021/04/16 05:05:15;;;;;;;6.30;5.80;;;5.80;70.80;;;;;;5114505;28;20446;-76
2021/04/16 05:07:41;;;;;;;8.53;6.40;;;5.70;71.30;;;;;;5114325;28;20438;-76
2021/04/16 05:10:09;;;;;;;7.47;6.77;;;5.60;72.20;;;;;;5114165;28;20516;-76
2021/04/16 05:12:36;;;;;;;7.40;6.00;;;5.50;72.60;;;;;;5113973;28;20936;-76
2021/04/16 05:15:03;;;;;;;6.10;5.50;;;5.40;72.40;;;;;;5113915;28;20814;-76
2021/04/16 05:17:29;;;;;;;6.03;5.43;;;5.50;73.20;;;;;;5114212;28;20438;-76
2021/04/16 05:19:55;;;;;;;7.67;5.80;;;5.50;73.70;;;;;;5114153;28;20822;-76
2021/04/16 05:22:22;;;;;;;7.20;5.60;;;5.60;74.10;;;;;;5113859;28;21008;-76
2021/04/16 05:24:48;;;;;;;8.70;6.20;;;5.70;73.80;;;;;;5114337;28;20470;-76
2021/04/16 05:27:17;;;;;;;6.40;5.80;;;5.70;73.50;;;;;;5113822;28;20427;-76
2021/04/16 05:29:43;;;;;;;10.50;6.00;;;5.80;73.20;;;;;;5113870;28;20478;-76
2021/04/16 05:32:10;;;;;;;9.10;6.33;;;5.90;73.00;;;;;;5114064;28;20496;-76
2021/04/16 05:34:36;;;;;;;6.03;5.43;;;5.90;72.40;;;;;;5113985;28;20442;-76
2021/04/16 05:37:04;;;;;;;7.67;5.57;;;6.00;72.10;;;;;;5114010;28;20443;-76
2021/04/16 05:39:31;;;;;;;6.83;5.30;;;6.00;71.70;;;;;;5113591;28;20459;-76
2021/04/16 05:41:58;;;;;;;9.03;5.60;;;6.10;71.60;;;;;;5113603;28;20444;-76
2021/04/16 05:44:24;;;;;;;10.03;6.20;;;6.10;71.10;;;;;;5113897;28;20445;-76
2021/04/16 05:46:51;;;;;;;6.80;5.90;;;6.20;70.90;;;;;;5113855;28;20438;-76
2021/04/16 05:49:17;;;;;;;5.53;5.03;;;6.30;70.90;;;;;;5113831;28;20482;-76
2021/04/16 05:51:44;;;;;;;6.50;5.90;;;6.30;70.50;;;;;;5113819;28;20447;-76
2021/04/16 05:54:11;;;;;;;6.30;5.70;;;6.40;70.50;;;;;;5113878;28;20468;-76
2021/04/16 05:56:38;;;;;;;7.50;6.40;;;6.40;70.60;;;;;;5113900;28;20423;-76
2021/04/16 05:59:04;;;;;;;8.13;6.60;;;6.40;70.80;;;;;;5114284;28;20458;-76
2021/04/16 06:01:32;;;;;;;6.40;5.80;;;6.50;71.00;;;;;;5113882;28;20461;-76
2021/04/16 06:03:58;;;;;;;6.30;5.70;;;6.50;70.50;;;;;;5113844;28;20929;-76
2021/04/16 06:06:24;;;;;;;6.20;5.60;;;6.60;70.30;;;;;;5113725;28;20488;-76
2021/04/16 06:08:50;;;;;;;11.50;5.97;;;6.70;70.10;;;;;;5113518;28;20482;-76
2021/04/16 06:11:17;;;;;;;6.50;5.17;;;6.70;70.10;;;;;;5113698;28;20449;-76
2021/04/16 06:13:44;;;;;;;6.63;5.27;;;6.80;69.50;;;;;;5113704;28;20443;-76
2021/04/16 06:16:10;;;;;;;7.63;5.63;;;6.80;69.40;;;;;;5114346;28;20438;-76
2021/04/16 06:18:36;;;;;;;4.80;3.70;;;6.90;69.10;;;;;;5113541;28;20459;-76
2021/04/16 06:21:03;;;;;;;7.47;6.10;;;7.00;68.00;;;;;;5113595;28;20424;-76
2021/04/16 06:23:29;;;;;;;7.03;6.03;;;7.10;68.20;;;;;;5113446;28;20439;-76
2021/04/16 06:25:56;;;;;;;6.87;6.17;;;7.20;68.90;;;;;;5113123;28;20458;-76
2021/04/16 06:28:22;;;;;;;8.13;5.63;;;7.30;69.10;;;;;;5113322;28;20485;-76
2021/04/16 06:30:49;;;;;;;9.70;6.67;;;7.40;68.90;;;;;;5113447;28;20435;-76
2021/04/16 06:33:22;;;;;;;11.13;6.43;;;7.50;68.80;;;;;;5113444;28;20438;-76
2021/04/16 06:35:52;;;;;;;7.53;6.57;;;7.60;68.30;;;;;;5113463;28;20427;-76
2021/04/16 06:38:21;;;;;;;12.17;6.07;;;7.70;67.90;;;;;;5114449;28;20461;-76
2021/04/16 06:40:48;;;;;;;8.50;6.57;;;7.70;67.10;;;;;;5113385;28;20450;-76
2021/04/16 06:43:15;;;;;;;7.77;6.70;;;7.90;67.10;;;;;;5113336;28;20438;-76
2021/04/16 06:45:42;;;;;;;8.43;7.63;;;8.00;67.20;;;;;;5112951;28;20454;-75
2021/04/16 06:48:11;;;;;;;8.80;6.87;;;8.10;66.60;;;;;;5113221;28;20485;-76
2021/04/16 06:50:41;;;;;;;7.50;6.70;;;8.20;66.70;;;;;;5115149;28;20467;-76
2021/04/16 06:53:14;;;;;;;8.47;7.60;;;8.20;66.70;;;;;;5116881;28;20871;-76
2021/04/16 06:55:53;;;;;;;7.23;6.50;;;8.30;65.90;;;;;;5116879;28;20437;-75
2021/04/16 06:58:25;;;;;;;9.27;6.27;;;8.30;66.30;;;;;;5116715;28;20424;-76
2021/04/16 07:01:08;;;;;;;11.50;7.10;;;8.30;65.90;;;;;;5116800;28;20434;-76
2021/04/16 07:03:42;;;;;;;9.40;6.67;;;8.40;65.60;;;;;;5116740;28;20464;-76
2021/04/16 07:06:16;;;;;;;8.83;7.17;;;8.50;65.80;;;;;;5116676;28;20433;-76
2021/04/16 07:08:49;;;;;;;11.30;7.97;;;8.60;65.50;;;;;;5116221;28;20479;-76
2021/04/16 07:11:23;;;;;;;15.37;8.83;;;8.80;65.40;;;;;;5116596;28;20484;-76
2021/04/16 07:13:49;;;;;;;10.60;8.60;;;8.90;64.30;;;;;;5116447;28;20782;-75
2021/04/16 07:16:18;;;;;;;10.27;9.17;;;9.00;64.10;;;;;;5116428;28;20476;-76
2021/04/16 07:18:49;;;;;;;9.33;6.60;;;9.10;63.60;;;;;;5116085;28;20455;-75
2021/04/16 07:21:18;;;;;;;10.70;6.97;;;9.20;63.40;;;;;;5116333;28;20427;-76
2021/04/16 07:23:48;;;;;;;11.10;7.33;;;9.40;63.50;;;;;;5116287;28;20447;-76
2021/04/16 07:26:26;;;;;;;8.17;7.33;;;9.60;62.70;;;;;;5116076;28;20874;-76
2021/04/16 07:28:54;;;;;;;8.33;7.23;;;9.70;61.40;;;;;;5116101;28;20481;-76
2021/04/16 07:31:26;;;;;;;8.97;7.40;;;9.90;60.80;;;;;;5116177;28;20501;-76
2021/04/16 07:33:54;;;;;;;9.40;8.33;;;10.00;59.90;;;;;;5116098;28;20427;-76
2021/04/16 07:36:27;;;;;;;8.77;7.00;;;10.10;59.00;;;;;;5116032;28;20450;-76
2021/04/16 07:39:03;;;;;;;12.23;8.27;;;10.20;58.80;;;;;;5116032;28;20459;-76
2021/04/16 07:41:31;;;;;;;7.73;6.63;;;10.30;58.50;;;;;;5116026;28;20431;-76
2021/04/16 07:43:59;;;;;;;10.00;8.10;;;10.50;58.40;;;;;;5115919;28;20442;-76
2021/04/16 07:46:40;;;;;;;8.60;7.30;;;10.60;58.30;;;;;;5115927;28;20781;-76
2021/04/16 07:49:24;;;;;;;10.93;7.77;;;10.70;57.80;;;;;;5115753;28;20483;-75
2021/04/16 07:51:53;;;;;;;7.93;6.40;;;10.80;58.00;;;;;;5115498;28;20914;-76
2021/04/16 07:54:22;;;;;;;9.10;8.20;;;10.90;57.30;;;;;;5115416;28;20451;-76
2021/04/16 07:57:02;;;;;;;10.20;6.80;;;11.00;56.50;;;;;;5115766;28;20517;-76
2021/04/16 07:59:28;;;;;;;10.93;7.60;;;11.10;56.90;;;;;;5115594;28;20459;-76
2021/04/16 08:01:54;;;;;;;11.67;7.00;;;11.10;56.60;;;;;;5115647;28;20432;-76
2021/04/16 08:04:33;;;;;;;17.93;8.00;;;11.20;56.20;;;;;;5115590;28;20466;-76
2021/04/16 08:07:16;;;;;;;9.03;7.33;;;11.20;56.30;;;;;;5115580;28;20438;-76
2021/04/16 08:09:43;;;;;;;9.60;7.33;;;11.30;55.50;;;;;;5115396;28;20486;-76
2021/04/16 08:12:17;;;;;;;9.00;8.00;;;11.30;55.10;;;;;;5115418;28;20450;-76
2021/04/16 08:14:44;;;;;;;8.43;7.10;;;11.40;56.00;;;;;;5115447;28;20458;-76
2021/04/16 08:17:22;;;;;;;14.13;6.43;;;11.60;54.90;;;;;;5116129;28;20763;-76
2021/04/16 08:19:50;;;;;;;9.87;7.87;;;11.70;54.70;;;;;;5115190;28;20483;-76
2021/04/16 08:22:21;;;;;;;7.97;6.40;;;11.90;53.70;;;;;;5115160;28;20446;-76
2021/04/16 08:24:52;;;;;;;10.83;7.50;;;12.00;52.70;;;;;;5114712;28;20947;-76
2021/04/16 08:27:44;;;;;;;9.33;6.23;;;12.20;52.30;;;;;;5115075;28;20428;-76
2021/04/16 08:30:20;;;;;;;10.60;6.50;;;12.30;51.80;;;;;;5095338;27;20486;-76
2021/04/16 08:32:53;;;;;;;9.53;6.30;;;12.60;51.50;;;;;;5115007;28;20437;-76
2021/04/16 08:35:25;;;;;;;8.73;7.00;;;12.80;50.90;;;;;;5114962;28;20435;-76
2021/04/16 08:37:57;;;;;;;7.40;6.60;;;13.00;49.30;;;;;;5114961;28;20423;-76
2021/04/16 08:40:28;;;;;;;9.70;5.67;;;13.20;49.00;;;;;;5114570;28;20463;-76
2021/04/16 08:42:57;;;;;;;6.67;5.30;;;13.30;48.30;;;;;;5114873;28;20848;-77
2021/04/16 08:45:26;;;;;;;8.00;6.20;;;13.30;47.60;;;;;;5114804;28;20492;-76
2021/04/16 08:47:56;;;;;;;8.23;5.77;;;13.40;48.00;;;;;;5114378;28;20897;-77
2021/04/16 08:50:26;;;;;;;9.40;5.77;;;13.50;47.50;;;;;;5114607;28;20466;-76
2021/04/16 08:52:54;;;;;;;8.10;5.83;;;13.60;47.50;;;;;;5114591;28;20439;-77
2021/04/16 08:55:27;;;;;;;6.70;5.50;;;13.80;47.80;;;;;;5114638;28;20427;-76
2021/04/16 08:57:57;;;;;;;8.60;6.20;;;14.00;47.60;;;;;;5114506;28;20446;-77
2021/04/16 09:00:31;;;;;;;9.03;6.43;;;13.90;45.80;;;;;;5114452;28;20466;-77
2021/04/16 09:02:59;;;;;;;6.17;5.37;;;13.80;47.20;;;;;;5114238;28;20920;-77
2021/04/16 09:05:29;;;;;;;7.43;6.20;;;13.90;47.00;;;;;;5114368;28;20558;-77
2021/04/16 09:07:59;;;;;;;8.10;5.90;;;14.00;46.10;;;;;;5114820;28;20445;-77
2021/04/16 09:10:51;;;;;;;5.63;5.13;;;14.00;46.20;;;;;;5114782;28;20467;-78
2021/04/16 09:13:50;;;;;;;6.00;5.40;;;14.30;46.20;;;;;;5114603;28;20463;-77
2021/04/16 09:16:51;;;;;;;5.70;5.20;;;14.50;44.60;;;;;;5099091;28;20451;-77
2021/04/16 09:19:37;;;;;;;6.80;5.20;;;14.50;43.90;;;;;;5114348;28;20550;-77
2021/04/16 09:22:37;;;;;;;6.63;5.00;;;14.40;44.60;;;;;;5114012;28;20430;-77
2021/04/16 09:25:05;;;;;;;7.33;5.00;;;14.60;44.80;;;;;;5114048;28;20461;-77
2021/04/16 09:27:38;;;;;;;6.70;5.10;;;14.90;43.90;;;;;;5114505;28;20520;-77
2021/04/16 09:30:29;;;;;;;7.17;4.83;;;15.20;43.60;;;;;;5113977;28;20984;-77
2021/04/16 09:33:11;;;;;;;6.50;4.20;;;15.40;42.50;;;;;;5113828;28;20423;-77
2021/04/16 09:35:54;;;;;;;8.67;5.87;;;15.50;41.40;;;;;;5114481;28;20427;-77
2021/04/16 09:38:57;;;;;;;8.90;6.03;;;15.80;41.60;;;;;;5114130;28;20423;-77
2021/04/16 09:41:37;;;;;;;8.60;6.97;;;16.20;42.00;;;;;;5031905;28;20446;-77
2021/04/16 09:44:39;;;;;;;12.90;7.27;;;16.50;41.30;;;;;;5031695;28;20952;-77
2021/04/16 09:47:06;;;;;;;10.90;7.70;;;16.90;41.00;;;;;;5094795;28;20865;-77
2021/04/16 09:49:36;;;;;;;9.77;7.30;;;17.20;39.60;;;;;;5114165;28;21018;-78
2021/04/16 09:52:50;;;;;;;10.63;7.17;;;17.60;38.90;;;;;;5114009;28;20447;-77
2021/04/16 09:56:08;;;;;;;8.27;6.87;;;18.10;38.60;;;;;;5114075;28;20438;-77
2021/04/16 09:59:09;;;;;;;8.43;6.67;;;18.60;36.80;;;;;;5113952;28;20423;-78
2021/04/16 10:02:21;;;;;;;7.13;5.27;;;19.10;34.30;;;;;;5113966;28;20437;-77
2021/04/16 10:04:54;;;;;;;7.50;5.87;;;19.40;34.60;;;;;;5113801;28;20538;-77
2021/04/16 10:07:25;;;;;;;6.10;5.50;;;19.70;34.30;;;;;;5114173;28;20485;-77
2021/04/16 10:10:00;;;;;;;7.20;5.93;;;19.80;32.70;;;;;;5113524;28;20491;-77
2021/04/16 10:12:29;;;;;;;7.37;5.13;;;19.70;32.40;;;;;;5114365;28;20434;-77
2021/04/16 10:14:56;;;;;;;7.83;4.70;;;19.80;32.40;;;;;;5115965;28;20423;-77
2021/04/16 10:17:24;;;;;;;6.53;5.00;;;20.20;32.90;;;;;;5116862;28;20484;-77
2021/04/16 10:19:52;;;;;;;6.67;4.70;;;20.70;29.70;;;;;;5115741;28;20592;-78
2021/04/16 10:22:25;;;;;;;10.00;7.40;;;21.30;30.40;;;;;;5114518;28;20492;-76
2021/04/16 12:39:56;;;;;;;2.20;1.77;;;32.40;16.70;;;;;;5114733;28;20434;-74
2021/04/16 12:42:23;;;;;;;2.83;2.30;;;32.70;16.20;;;;;;5114965;28;20422;-75
2021/04/16 12:44:53;;;;;;;2.93;1.90;;;32.70;15.00;;;;;;5114793;28;20426;-73
2021/04/16 12:47:24;;;;;;;2.83;2.23;;;32.50;16.30;;;;;;5115119;28;20426;-80
2021/04/16 12:49:50;;;;;;;2.90;2.13;;;32.10;15.60;;;;;;5119068;28;20490;-80
2021/04/16 12:52:19;;;;;;;3.30;2.47;;;31.70;16.70;;;;;;5118580;28;20483;-78
2021/04/16 12:54:49;;;;;;;2.00;1.90;;;31.80;16.60;;;;;;5117880;28;20507;-75
2021/04/16 12:57:20;;;;;;;2.43;2.03;;;31.90;16.80;;;;;;5114963;28;20438;-77
2021/04/16 12:59:47;;;;;;;2.50;2.30;;;32.00;15.80;;;;;;5114556;28;20454;-75
2021/04/16 13:02:22;;;;;;;3.63;2.30;;;31.80;16.20;;;;;;5114246;28;20438;-74
2021/04/16 13:04:49;;;;;;;2.70;2.50;;;31.90;16.80;;;;;;5114257;28;20960;-76
2021/04/16 13:07:15;;;;;;;3.70;2.00;;;32.30;16.30;;;;;;5114528;28;20795;-74
2021/04/16 13:09:41;;;;;;;2.20;1.80;;;32.90;15.90;;;;;;5114294;28;20477;-75
2021/04/16 13:12:08;;;;;;;4.00;2.17;;;33.50;15.30;;;;;;5114406;28;20426;-74
2021/04/16 13:14:35;;;;;;;3.03;2.30;;;34.00;15.40;;;;;;5114340;28;20434;-74
2021/04/16 13:17:01;;;;;;;1.87;1.77;;;34.50;14.90;;;;;;5114277;28;20487;-75
2021/04/16 13:19:32;;;;;;;6.83;1.97;;;34.90;14.60;;;;;;5114147;28;20462;-76
2021/04/16 13:22:04;;;;;;;2.07;1.87;;;34.90;14.70;;;;;;5114942;28;20508;-76
2021/04/16 13:24:33;;;;;;;2.40;2.20;;;34.60;14.40;;;;;;5114141;28;20480;-75
2021/04/16 13:27:00;;;;;;;2.70;1.80;;;34.40;14.70;;;;;;5114157;28;20426;-76
2021/04/16 13:29:26;;;;;;;3.53;1.80;;;33.90;14.70;;;;;;5114279;28;20482;-75
2021/04/16 13:31:53;;;;;;;1.77;1.43;;;33.10;14.60;;;;;;5114162;28;20423;-75
2021/04/16 13:34:20;;;;;;;2.17;1.70;;;32.40;14.90;;;;;;5114603;28;20426;-75
2021/04/16 13:36:47;;;;;;;2.10;1.70;;;31.80;15.90;;;;;;5114172;28;20439;-76
2021/04/16 13:39:14;;;;;;;6.33;2.20;;;31.70;16.50;;;;;;5116960;28;20466;-77
2021/04/16 13:41:40;;;;;;;3.30;2.00;;;32.20;16.50;;;;;;5114500;28;20426;-77
2021/04/16 13:44:06;;;;;;;3.47;2.33;;;33.00;15.50;;;;;;5114037;28;20427;-75
2021/04/16 13:46:35;;;;;;;2.40;2.00;;;33.80;14.80;;;;;;5113961;28;20452;-76
2021/04/16 13:49:03;;;;;;;3.23;2.40;;;34.60;14.80;;;;;;5113821;28;20955;-75
2021/04/16 13:51:29;;;;;;;2.37;2.13;;;34.90;14.00;;;;;;5114224;28;20433;-75
2021/04/16 13:53:56;;;;;;;2.53;2.33;;;35.30;13.60;;;;;;5114224;28;20434;-76
2021/04/16 13:56:23;;;;;;;4.50;2.50;;;35.20;13.90;;;;;;5113957;28;20430;-76
2021/04/16 13:58:49;;;;;;;2.50;2.03;;;35.00;13.20;;;;;;5114342;28;21002;-75
2021/04/16 14:01:15;;;;;;;2.53;1.90;;;35.00;14.10;;;;;;5117625;28;20450;-76
2021/04/16 14:03:43;;;;;;;2.50;2.30;;;35.50;14.10;;;;;;5119270;28;20449;-78
2021/04/16 14:06:14;;;;;;;3.20;2.40;;;35.90;13.40;;;;;;5120266;28;20479;-78
2021/04/16 14:08:42;;;;;;;2.03;1.87;;;36.50;13.20;;;;;;5119712;28;20228;-77
2021/04/16 14:11:09;;;;;;;3.20;2.07;;;37.00;13.70;;;;;;5118975;28;20305;-77
2021/04/16 14:13:36;;;;;;;5.47;2.47;;;37.00;12.70;;;;;;5119974;28;20579;-78
2021/04/16 14:16:05;;;;;;;8.67;2.37;;;36.80;13.00;;;;;;5120735;28;20196;-78
2021/04/16 14:18:34;;;;;;;5.90;2.90;;;36.20;13.40;;;;;;5121243;28;20450;-77
2021/04/16 14:21:11;;;;;;;4.87;2.60;;;35.30;13.30;;;;;;5120189;28;20790;-78
2021/04/16 14:23:37;;;;;;;4.47;2.70;;;34.40;13.80;;;;;;5120608;28;20487;-78
2021/04/16 14:26:05;;;;;;;4.83;2.50;;;33.40;14.70;;;;;;5120682;28;20540;-79
2021/04/16 14:28:32;;;;;;;2.60;2.10;;;32.80;15.20;;;;;;5119950;28;20936;-77
2021/04/16 14:30:58;;;;;;;5.07;2.30;;;32.50;15.50;;;;;;5117696;28;20466;-77
2021/04/16 14:33:28;;;;;;;2.50;2.30;;;32.70;15.80;;;;;;5118201;28;20434;-78
2021/04/16 14:35:56;;;;;;;2.70;2.10;;;33.10;15.50;;;;;;5119703;28;20434;-78
2021/04/16 14:38:23;;;;;;;2.03;1.83;;;33.50;15.30;;;;;;5117765;28;20805;-75
2021/04/16 14:40:49;;;;;;;3.53;3.00;;;34.10;14.70;;;;;;5116912;28;20817;-77
2021/04/16 14:43:16;;;;;;;3.60;2.80;;;34.40;14.70;;;;;;5119031;28;20426;-76
2021/04/16 14:45:45;;;;;;;2.57;2.37;;;33.80;14.40;;;;;;5117332;28;20472;-76
2021/04/16 14:48:13;;;;;;;3.00;2.80;;;33.00;15.00;;;;;;5117264;28;20442;-75
2021/04/16 14:50:40;;;;;;;2.77;2.30;;;32.60;15.60;;;;;;5117733;28;20542;-77
2021/04/16 14:53:12;;;;;;;5.80;2.93;;;32.50;15.70;;;;;;5118029;28;20450;-77
2021/04/16 14:55:39;;;;;;;4.00;2.43;;;32.30;15.70;;;;;;5116903;28;20430;-76
2021/04/16 14:58:07;;;;;;;3.73;3.43;;;31.70;16.50;;;;;;5116990;28;20458;-76
2021/04/16 15:00:36;;;;;;;3.00;2.80;;;31.10;16.10;;;;;;5116826;27;20469;-76
2021/04/16 15:03:04;;;;;;;4.60;2.63;;;30.40;16.70;;;;;;5118774;28;20461;-76
2021/04/16 15:05:31;;;;;;;3.60;3.27;;;29.90;17.30;;;;;;5116801;28;20449;-76
2021/04/16 15:08:00;;;;;;;3.23;2.80;;;29.70;17.40;;;;;;5116536;28;20504;-76
2021/04/16 15:10:29;;;;;;;3.23;2.93;;;29.40;17.30;;;;;;5115632;28;20524;-75
2021/04/16 15:12:56;;;;;;;2.77;2.57;;;28.80;18.00;;;;;;5116702;28;20431;-76
2021/04/16 15:15:30;;;;;;;3.60;3.20;;;28.20;18.20;;;;;;5117884;28;20843;-76
2021/04/16 15:17:57;;;;;;;3.63;3.00;;;27.40;19.00;;;;;;5116623;28;20441;-75
2021/04/16 15:20:25;;;;;;;2.93;2.67;;;26.30;19.50;;;;;;5116476;28;20516;-76